sensor_id;sensor_type;location;lat;lon;timestamp;temperature;humidity
10245;DHT22;5167;52.164;10.530;2023-03-01T00:00:39;1.20;15.70
10245;DHT22;5167;52.164;10.530;2023-03-01T00:03:04;1.20;15.00
10245;DHT22;5167;52.164;10.530;2023-03-01T00:05:30;1.20;15.20
10245;DHT22;5167;52.164;10.530;2023-03-01T00:07:55;1.20;15.70
10245;DHT22;5167;52.164;10.530;2023-03-01T00:10:21;1.10;15.60
10245;DHT22;5167;52.164;10.530;2023-03-01T00:12:46;1.10;15.60
10245;DHT22;5167;52.164;10.530;2023-03-01T00:15:12;1.10;15.60
10245;DHT22;5167;52.164;10.530;2023-03-01T00:17:37;1.10;16.10
10245;DHT22;5167;52.164;10.530;2023-03-01T00:20:03;1.10;15.30
10245;DHT22;5167;52.164;10.530;2023-03-01T00:22:33;1.00;14.90
10245;DHT22;5167;52.164;10.530;2023-03-01T00:24:59;1.10;15.70
10245;DHT22;5167;52.164;10.530;2023-03-01T00:27:24;1.10;15.40
10245;DHT22;5167;52.164;10.530;2023-03-01T00:29:50;1.00;15.50
10245;DHT22;5167;52.164;10.530;2023-03-01T00:32:15;1.00;15.40
10245;DHT22;5167;52.164;10.530;2023-03-01T00:34:40;1.00;15.70
10245;DHT22;5167;52.164;10.530;2023-03-01T00:37:06;1.00;16.10
10245;DHT22;5167;52.164;10.530;2023-03-01T00:39:32;0.90;16.50
10245;DHT22;5167;52.164;10.530;2023-03-01T00:41:58;1.00;16.50
10245;DHT22;5167;52.164;10.530;2023-03-01T00:44:24;0.90;16.60
10245;DHT22;5167;52.164;10.530;2023-03-01T00:46:49;0.90;16.40
10245;DHT22;5167;52.164;10.530;2023-03-01T00:49:15;0.90;16.70
10245;DHT22;5167;52.164;10.530;2023-03-01T00:51:40;0.90;16.60
10245;DHT22;5167;52.164;10.530;2023-03-01T00:54:08;0.80;16.60
10245;DHT22;5167;52.164;10.530;2023-03-01T00:56:34;0.90;16.60
10245;DHT22;5167;52.164;10.530;2023-03-01T00:58:59;0.80;16.80
10245;DHT22;5167;52.164;10.530;2023-03-01T01:01:27;0.80;16.70
10245;DHT22;5167;52.164;10.530;2023-03-01T01:03:59;0.70;17.10
10245;DHT22;5167;52.164;10.530;2023-03-01T01:06:27;0.70;17.40
10245;DHT22;5167;52.164;10.530;2023-03-01T01:08:54;0.70;16.70
10245;DHT22;5167;52.164;10.530;2023-03-01T01:11:21;0.70;17.00
10245;DHT22;5167;52.164;10.530;2023-03-01T01:13:47;0.60;16.90
10245;DHT22;5167;52.164;10.530;2023-03-01T01:16:14;0.60;17.20
10245;DHT22;5167;52.164;10.530;2023-03-01T01:18:40;0.60;17.50
10245;DHT22;5167;52.164;10.530;2023-03-01T01:21:11;0.70;17.40
10245;DHT22;5167;52.164;10.530;2023-03-01T01:23:39;0.60;17.50
10245;DHT22;5167;52.164;10.530;2023-03-01T01:26:11;0.60;17.60
10245;DHT22;5167;52.164;10.530;2023-03-01T01:28:36;0.60;17.60
10245;DHT22;5167;52.164;10.530;2023-03-01T01:31:02;0.60;18.10
10245;DHT22;5167;52.164;10.530;2023-03-01T01:33:28;0.50;17.70
10245;DHT22;5167;52.164;10.530;2023-03-01T01:35:54;0.50;17.60
10245;DHT22;5167;52.164;10.530;2023-03-01T01:38:19;0.50;18.00
10245;DHT22;5167;52.164;10.530;2023-03-01T01:40:49;0.40;18.00
10245;DHT22;5167;52.164;10.530;2023-03-01T01:43:23;0.50;17.90
10245;DHT22;5167;52.164;10.530;2023-03-01T01:45:52;0.40;18.00
10245;DHT22;5167;52.164;10.530;2023-03-01T01:48:23;0.40;18.20
10245;DHT22;5167;52.164;10.530;2023-03-01T01:50:58;0.30;18.00
10245;DHT22;5167;52.164;10.530;2023-03-01T01:53:24;0.30;18.10
10245;DHT22;5167;52.164;10.530;2023-03-01T01:55:57;0.30;18.50
10245;DHT22;5167;52.164;10.530;2023-03-01T01:58:25;0.20;18.90
10245;DHT22;5167;52.164;10.530;2023-03-01T02:00:52;0.20;18.70
10245;DHT22;5167;52.164;10.530;2023-03-01T02:03:31;0.30;19.20
10245;DHT22;5167;52.164;10.530;2023-03-01T02:06:06;0.20;19.10
10245;DHT22;5167;52.164;10.530;2023-03-01T02:08:38;0.20;19.10
10245;DHT22;5167;52.164;10.530;2023-03-01T02:11:06;0.20;19.20
10245;DHT22;5167;52.164;10.530;2023-03-01T02:13:33;0.10;20.00
10245;DHT22;5167;52.164;10.530;2023-03-01T02:16:03;0.10;19.10
10245;DHT22;5167;52.164;10.530;2023-03-01T02:18:29;0.10;18.90
10245;DHT22;5167;52.164;10.530;2023-03-01T02:21:29;0.10;18.60
10245;DHT22;5167;52.164;10.530;2023-03-01T02:23:56;0.10;19.40
10245;DHT22;5167;52.164;10.530;2023-03-01T02:26:35;0.00;18.60
10245;DHT22;5167;52.164;10.530;2023-03-01T02:29:02;0.00;18.40
10245;DHT22;5167;52.164;10.530;2023-03-01T02:31:28;0.00;18.70
10245;DHT22;5167;52.164;10.530;2023-03-01T02:34:15;0.00;18.80
10245;DHT22;5167;52.164;10.530;2023-03-01T02:39:13;-0.10;19.90
10245;DHT22;5167;52.164;10.530;2023-03-01T02:41:45;-0.10;19.90
10245;DHT22;5167;52.164;10.530;2023-03-01T02:44:12;-0.10;19.80
10245;DHT22;5167;52.164;10.530;2023-03-01T02:46:52;-0.10;19.60
10245;DHT22;5167;52.164;10.530;2023-03-01T02:49:25;-0.20;19.60
10245;DHT22;5167;52.164;10.530;2023-03-01T02:57:27;-0.20;20.50
10245;DHT22;5167;52.164;10.530;2023-03-01T02:59:55;-0.20;20.70
10245;DHT22;5167;52.164;10.530;2023-03-01T03:02:24;-0.30;20.50
10245;DHT22;5167;52.164;10.530;2023-03-01T03:05:12;-0.30;20.40
10245;DHT22;5167;52.164;10.530;2023-03-01T03:07:41;-0.30;20.90
10245;DHT22;5167;52.164;10.530;2023-03-01T03:10:10;-0.30;20.80
10245;DHT22;5167;52.164;10.530;2023-03-01T03:12:37;-0.30;21.20
10245;DHT22;5167;52.164;10.530;2023-03-01T03:15:03;-0.30;20.90
10245;DHT22;5167;52.164;10.530;2023-03-01T03:17:36;-0.30;21.40
10245;DHT22;5167;52.164;10.530;2023-03-01T03:20:03;-0.30;21.40
10245;DHT22;5167;52.164;10.530;2023-03-01T03:22:30;-0.30;21.50
10245;DHT22;5167;52.164;10.530;2023-03-01T03:24:55;-0.40;21.40
10245;DHT22;5167;52.164;10.530;2023-03-01T03:27:21;-0.30;21.80
10245;DHT22;5167;52.164;10.530;2023-03-01T03:29:46;-0.30;21.70
10245;DHT22;5167;52.164;10.530;2023-03-01T03:32:12;-0.40;21.10
10245;DHT22;5167;52.164;10.530;2023-03-01T03:34:37;-0.40;21.20
10245;DHT22;5167;52.164;10.530;2023-03-01T03:37:02;-0.40;21.60
10245;DHT22;5167;52.164;10.530;2023-03-01T03:39:28;-0.40;21.30
10245;DHT22;5167;52.164;10.530;2023-03-01T03:42:00;-0.40;22.10
10245;DHT22;5167;52.164;10.530;2023-03-01T03:44:25;-0.40;21.20
10245;DHT22;5167;52.164;10.530;2023-03-01T03:46:51;-0.40;21.30
10245;DHT22;5167;52.164;10.530;2023-03-01T03:49:16;-0.40;21.60
10245;DHT22;5167;52.164;10.530;2023-03-01T03:51:42;-0.40;20.70
10245;DHT22;5167;52.164;10.530;2023-03-01T03:54:07;-0.40;21.00
10245;DHT22;5167;52.164;10.530;2023-03-01T03:56:33;-0.50;21.20
10245;DHT22;5167;52.164;10.530;2023-03-01T03:58:58;-0.50;21.00
10245;DHT22;5167;52.164;10.530;2023-03-01T04:01:24;-0.50;21.20
10245;DHT22;5167;52.164;10.530;2023-03-01T04:03:49;-0.50;21.50
10245;DHT22;5167;52.164;10.530;2023-03-01T04:06:19;-0.50;21.60
10245;DHT22;5167;52.164;10.530;2023-03-01T04:08:45;-0.50;21.30
10245;DHT22;5167;52.164;10.530;2023-03-01T04:11:11;-0.60;21.80
10245;DHT22;5167;52.164;10.530;2023-03-01T04:13:54;-0.50;21.10
10245;DHT22;5167;52.164;10.530;2023-03-01T04:16:19;-0.50;20.90
10245;DHT22;5167;52.164;10.530;2023-03-01T04:18:46;-0.60;21.20
10245;DHT22;5167;52.164;10.530;2023-03-01T04:21:11;-0.60;21.00
10245;DHT22;5167;52.164;10.530;2023-03-01T04:23:37;-0.60;20.40
10245;DHT22;5167;52.164;10.530;2023-03-01T04:26:03;-0.60;20.80
10245;DHT22;5167;52.164;10.530;2023-03-01T04:28:34;-0.60;20.80
10245;DHT22;5167;52.164;10.530;2023-03-01T04:31:09;-0.60;20.70
10245;DHT22;5167;52.164;10.530;2023-03-01T04:33:50;-0.60;21.20
10245;DHT22;5167;52.164;10.530;2023-03-01T04:36:21;-0.70;21.60
10245;DHT22;5167;52.164;10.530;2023-03-01T04:38:47;-0.70;22.10
10245;DHT22;5167;52.164;10.530;2023-03-01T04:41:15;-0.80;22.00
10245;DHT22;5167;52.164;10.530;2023-03-01T04:43:40;-0.80;20.90
10245;DHT22;5167;52.164;10.530;2023-03-01T04:46:09;-0.70;21.20
10245;DHT22;5167;52.164;10.530;2023-03-01T04:48:36;-0.80;21.00
10245;DHT22;5167;52.164;10.530;2023-03-01T04:51:03;-0.80;21.30
10245;DHT22;5167;52.164;10.530;2023-03-01T04:53:29;-0.80;21.50
10245;DHT22;5167;52.164;10.530;2023-03-01T04:55:55;-0.80;21.30
10245;DHT22;5167;52.164;10.530;2023-03-01T04:58:26;-0.80;21.40
10245;DHT22;5167;52.164;10.530;2023-03-01T05:00:52;-0.90;21.20
10245;DHT22;5167;52.164;10.530;2023-03-01T05:03:18;-0.90;21.00
10245;DHT22;5167;52.164;10.530;2023-03-01T05:05:45;-0.70;21.00
10245;DHT22;5167;52.164;10.530;2023-03-01T05:08:12;-0.90;20.80
10245;DHT22;5167;52.164;10.530;2023-03-01T05:10:47;-0.90;21.00
10245;DHT22;5167;52.164;10.530;2023-03-01T05:13:13;-0.90;20.90
10245;DHT22;5167;52.164;10.530;2023-03-01T05:15:40;-0.90;21.00
10245;DHT22;5167;52.164;10.530;2023-03-01T05:18:06;-0.90;20.60
10245;DHT22;5167;52.164;10.530;2023-03-01T05:20:37;-0.90;21.40
10245;DHT22;5167;52.164;10.530;2023-03-01T05:23:03;-1.00;21.10
10245;DHT22;5167;52.164;10.530;2023-03-01T05:25:31;-1.00;20.90
10245;DHT22;5167;52.164;10.530;2023-03-01T05:28:02;-1.10;21.70
10245;DHT22;5167;52.164;10.530;2023-03-01T05:30:30;-1.10;21.60
10245;DHT22;5167;52.164;10.530;2023-03-01T05:32:56;-1.10;21.80
10245;DHT22;5167;52.164;10.530;2023-03-01T05:35:23;-1.10;22.10
10245;DHT22;5167;52.164;10.530;2023-03-01T05:37:49;-1.00;21.60
10245;DHT22;5167;52.164;10.530;2023-03-01T05:40:18;-1.10;21.70
10245;DHT22;5167;52.164;10.530;2023-03-01T05:42:46;-1.10;21.90
10245;DHT22;5167;52.164;10.530;2023-03-01T05:45:12;-1.00;21.60
10245;DHT22;5167;52.164;10.530;2023-03-01T05:47:40;-1.00;20.60
10245;DHT22;5167;52.164;10.530;2023-03-01T05:50:10;-1.00;20.60
10245;DHT22;5167;52.164;10.530;2023-03-01T05:52:36;-1.10;20.50
10245;DHT22;5167;52.164;10.530;2023-03-01T05:55:01;-1.10;20.60
10245;DHT22;5167;52.164;10.530;2023-03-01T05:57:28;-1.20;20.70
10245;DHT22;5167;52.164;10.530;2023-03-01T05:59:54;-1.20;20.80
10245;DHT22;5167;52.164;10.530;2023-03-01T06:02:19;-1.30;22.00
10245;DHT22;5167;52.164;10.530;2023-03-01T06:04:45;-1.30;22.20
10245;DHT22;5167;52.164;10.530;2023-03-01T06:07:10;-1.30;20.80
10245;DHT22;5167;52.164;10.530;2023-03-01T06:09:36;-1.30;21.10
10245;DHT22;5167;52.164;10.530;2023-03-01T06:12:01;-1.40;21.20
10245;DHT22;5167;52.164;10.530;2023-03-01T06:14:27;-1.30;21.30
10245;DHT22;5167;52.164;10.530;2023-03-01T06:16:52;-1.30;21.40
10245;DHT22;5167;52.164;10.530;2023-03-01T06:19:18;-1.30;22.00
10245;DHT22;5167;52.164;10.530;2023-03-01T06:21:43;-1.40;21.90
10245;DHT22;5167;52.164;10.530;2023-03-01T06:24:09;-1.40;21.90
10245;DHT22;5167;52.164;10.530;2023-03-01T06:26:34;-1.40;21.80
10245;DHT22;5167;52.164;10.530;2023-03-01T06:29:00;-1.30;21.70
10245;DHT22;5167;52.164;10.530;2023-03-01T06:31:25;-1.30;21.60
10245;DHT22;5167;52.164;10.530;2023-03-01T06:33:51;-1.30;21.00
10245;DHT22;5167;52.164;10.530;2023-03-01T06:36:16;-1.30;21.30
10245;DHT22;5167;52.164;10.530;2023-03-01T06:38:44;-1.40;21.50
10245;DHT22;5167;52.164;10.530;2023-03-01T06:41:09;-1.30;21.60
10245;DHT22;5167;52.164;10.530;2023-03-01T06:43:35;-1.30;21.80
10245;DHT22;5167;52.164;10.530;2023-03-01T06:46:04;-1.30;22.10
10245;DHT22;5167;52.164;10.530;2023-03-01T06:48:30;-1.30;21.60
10245;DHT22;5167;52.164;10.530;2023-03-01T06:50:58;-1.30;22.50
10245;DHT22;5167;52.164;10.530;2023-03-01T06:53:24;-1.30;21.60
10245;DHT22;5167;52.164;10.530;2023-03-01T06:55:54;-1.40;22.30
10245;DHT22;5167;52.164;10.530;2023-03-01T06:58:20;-1.40;22.40
10245;DHT22;5167;52.164;10.530;2023-03-01T07:00:45;-1.50;22.60
10245;DHT22;5167;52.164;10.530;2023-03-01T07:03:11;-1.40;23.10
10245;DHT22;5167;52.164;10.530;2023-03-01T07:05:36;-1.30;23.40
10245;DHT22;5167;52.164;10.530;2023-03-01T07:08:02;-1.20;23.10
10245;DHT22;5167;52.164;10.530;2023-03-01T07:10:27;-1.10;23.20
10245;DHT22;5167;52.164;10.530;2023-03-01T07:12:57;-1.10;23.20
10245;DHT22;5167;52.164;10.530;2023-03-01T07:15:23;-1.10;23.50
10245;DHT22;5167;52.164;10.530;2023-03-01T07:17:48;-1.00;23.60
10245;DHT22;5167;52.164;10.530;2023-03-01T07:20:16;-0.90;23.70
10245;DHT22;5167;52.164;10.530;2023-03-01T07:22:42;-0.90;23.90
10245;DHT22;5167;52.164;10.530;2023-03-01T07:25:08;-0.90;23.50
10245;DHT22;5167;52.164;10.530;2023-03-01T07:27:34;-0.80;23.30
10245;DHT22;5167;52.164;10.530;2023-03-01T07:29:59;-0.70;23.40
10245;DHT22;5167;52.164;10.530;2023-03-01T07:32:25;-0.60;23.20
10245;DHT22;5167;52.164;10.530;2023-03-01T07:34:51;-0.60;23.10
10245;DHT22;5167;52.164;10.530;2023-03-01T07:37:17;-0.50;23.20
10245;DHT22;5167;52.164;10.530;2023-03-01T07:39:42;-0.30;23.60
10245;DHT22;5167;52.164;10.530;2023-03-01T07:42:08;-0.20;22.50
10245;DHT22;5167;52.164;10.530;2023-03-01T07:44:34;-0.20;22.00
10245;DHT22;5167;52.164;10.530;2023-03-01T07:47:03;0.00;22.40
10245;DHT22;5167;52.164;10.530;2023-03-01T07:49:29;0.10;22.30
10245;DHT22;5167;52.164;10.530;2023-03-01T07:51:54;0.10;21.60
10245;DHT22;5167;52.164;10.530;2023-03-01T07:54:20;0.20;21.30
10245;DHT22;5167;52.164;10.530;2023-03-01T07:56:46;0.30;20.60
10245;DHT22;5167;52.164;10.530;2023-03-01T07:59:11;0.40;20.50
10245;DHT22;5167;52.164;10.530;2023-03-01T08:01:37;0.50;20.60
10245;DHT22;5167;52.164;10.530;2023-03-01T08:04:02;0.60;20.90
10245;DHT22;5167;52.164;10.530;2023-03-01T08:06:29;0.70;21.30
10245;DHT22;5167;52.164;10.530;2023-03-01T08:08:55;0.90;22.60
10245;DHT22;5167;52.164;10.530;2023-03-01T08:11:20;1.10;21.60
10245;DHT22;5167;52.164;10.530;2023-03-01T08:13:48;1.20;21.70
10245;DHT22;5167;52.164;10.530;2023-03-01T08:16:14;1.40;21.60
10245;DHT22;5167;52.164;10.530;2023-03-01T08:18:41;1.60;21.00
10245;DHT22;5167;52.164;10.530;2023-03-01T08:21:13;1.70;20.80
10245;DHT22;5167;52.164;10.530;2023-03-01T08:23:39;1.90;19.30
10245;DHT22;5167;52.164;10.530;2023-03-01T08:26:12;2.00;19.00
10245;DHT22;5167;52.164;10.530;2023-03-01T08:28:39;2.20;19.00
10245;DHT22;5167;52.164;10.530;2023-03-01T08:31:25;2.30;18.50
10245;DHT22;5167;52.164;10.530;2023-03-01T08:33:54;2.30;16.90
10245;DHT22;5167;52.164;10.530;2023-03-01T08:36:22;2.50;16.30
10245;DHT22;5167;52.164;10.530;2023-03-01T08:38:48;2.60;15.40
10245;DHT22;5167;52.164;10.530;2023-03-01T08:41:13;2.90;15.20
10245;DHT22;5167;52.164;10.530;2023-03-01T08:43:40;2.70;14.50
10245;DHT22;5167;52.164;10.530;2023-03-01T08:46:05;2.80;15.10
10245;DHT22;5167;52.164;10.530;2023-03-01T08:48:31;2.90;14.20
10245;DHT22;5167;52.164;10.530;2023-03-01T08:50:56;3.10;13.80
10245;DHT22;5167;52.164;10.530;2023-03-01T08:53:22;3.20;13.60
10245;DHT22;5167;52.164;10.530;2023-03-01T08:55:48;3.30;12.80
10245;DHT22;5167;52.164;10.530;2023-03-01T08:58:13;3.50;11.70
10245;DHT22;5167;52.164;10.530;2023-03-01T09:00:39;3.50;10.40
10245;DHT22;5167;52.164;10.530;2023-03-01T09:03:05;3.60;11.20
10245;DHT22;5167;52.164;10.530;2023-03-01T09:05:32;3.70;11.60
10245;DHT22;5167;52.164;10.530;2023-03-01T09:07:58;3.90;11.00
10245;DHT22;5167;52.164;10.530;2023-03-01T09:10:23;4.10;10.50
10245;DHT22;5167;52.164;10.530;2023-03-01T09:12:49;4.30;9.60
10245;DHT22;5167;52.164;10.530;2023-03-01T09:15:14;4.50;8.30
10245;DHT22;5167;52.164;10.530;2023-03-01T09:17:40;4.60;6.30
10245;DHT22;5167;52.164;10.530;2023-03-01T09:20:05;4.70;9.10
10245;DHT22;5167;52.164;10.530;2023-03-01T09:22:33;5.00;9.20
10245;DHT22;5167;52.164;10.530;2023-03-01T09:25:00;5.30;6.50
10245;DHT22;5167;52.164;10.530;2023-03-01T09:27:26;5.50;6.40
10245;DHT22;5167;52.164;10.530;2023-03-01T09:29:51;5.80;5.90
10245;DHT22;5167;52.164;10.530;2023-03-01T09:32:17;5.90;5.00
10245;DHT22;5167;52.164;10.530;2023-03-01T09:34:42;6.20;5.00
10245;DHT22;5167;52.164;10.530;2023-03-01T09:37:26;6.40;5.00
10245;DHT22;5167;52.164;10.530;2023-03-01T09:39:52;6.60;5.00
10245;DHT22;5167;52.164;10.530;2023-03-01T09:42:17;6.70;5.00
10245;DHT22;5167;52.164;10.530;2023-03-01T09:44:54;6.90;5.00
10245;DHT22;5167;52.164;10.530;2023-03-01T09:47:29;7.10;5.00
10245;DHT22;5167;52.164;10.530;2023-03-01T09:50:04;7.20;5.00
10245;DHT22;5167;52.164;10.530;2023-03-01T09:55:34;7.40;5.00
10245;DHT22;5167;52.164;10.530;2023-03-01T09:58:37;7.50;5.00
10245;DHT22;5167;52.164;10.530;2023-03-01T10:09:47;7.90;5.00
10245;DHT22;5167;52.164;10.530;2023-03-01T10:12:17;7.90;5.00
10245;DHT22;5167;52.164;10.530;2023-03-01T10:15:07;8.00;5.00
10245;DHT22;5167;52.164;10.530;2023-03-01T10:17:43;8.10;5.00
10245;DHT22;5167;52.164;10.530;2023-03-01T10:22:46;8.10;5.00
10245;DHT22;5167;52.164;10.530;2023-03-01T10:25:25;8.20;5.00
10245;DHT22;5167;52.164;10.530;2023-03-01T10:28:02;8.40;5.00
10245;DHT22;5167;52.164;10.530;2023-03-01T10:30:38;8.60;5.00
10245;DHT22;5167;52.164;10.530;2023-03-01T10:33:23;8.30;5.00
10245;DHT22;5167;52.164;10.530;2023-03-01T10:35:50;8.20;5.00
10245;DHT22;5167;52.164;10.530;2023-03-01T10:38:17;8.30;5.00
10245;DHT22;5167;52.164;10.530;2023-03-01T10:40:57;8.30;5.00
10245;DHT22;5167;52.164;10.530;2023-03-01T10:43:24;8.40;5.00
10245;DHT22;5167;52.164;10.530;2023-03-01T10:45:50;8.40;5.00
10245;DHT22;5167;52.164;10.530;2023-03-01T10:48:19;8.40;5.00
10245;DHT22;5167;52.164;10.530;2023-03-01T10:50:48;8.50;5.00
10245;DHT22;5167;52.164;10.530;2023-03-01T10:53:42;8.50;5.00
10245;DHT22;5167;52.164;10.530;2023-03-01T10:56:12;8.50;5.00
10245;DHT22;5167;52.164;10.530;2023-03-01T10:58:41;8.60;5.00
10245;DHT22;5167;52.164;10.530;2023-03-01T11:03:41;8.90;5.00
10245;DHT22;5167;52.164;10.530;2023-03-01T11:08:43;9.00;5.00
10245;DHT22;5167;52.164;10.530;2023-03-01T11:11:23;9.20;5.00
10245;DHT22;5167;52.164;10.530;2023-03-01T11:16:23;9.40;5.00
10245;DHT22;5167;52.164;10.530;2023-03-01T11:18:57;9.30;5.00
10245;DHT22;5167;52.164;10.530;2023-03-01T11:21:24;9.20;5.00
10245;DHT22;5167;52.164;10.530;2023-03-01T11:23:51;9.10;5.00
10245;DHT22;5167;52.164;10.530;2023-03-01T11:26:18;9.10;5.00
10245;DHT22;5167;52.164;10.530;2023-03-01T11:28:49;9.20;5.00
10245;DHT22;5167;52.164;10.530;2023-03-01T11:31:15;9.10;5.00
10245;DHT22;5167;52.164;10.530;2023-03-01T11:33:54;9.10;5.00
10245;DHT22;5167;52.164;10.530;2023-03-01T11:36:47;9.00;5.00
10245;DHT22;5167;52.164;10.530;2023-03-01T11:41:50;9.00;5.00
10245;DHT22;5167;52.164;10.530;2023-03-01T11:44:26;9.00;5.00
10245;DHT22;5167;52.164;10.530;2023-03-01T11:47:15;8.90;5.00
10245;DHT22;5167;52.164;10.530;2023-03-01T11:50:15;8.80;5.00
10245;DHT22;5167;52.164;10.530;2023-03-01T11:52:48;8.70;5.00
10245;DHT22;5167;52.164;10.530;2023-03-01T11:55:42;8.70;5.00
10245;DHT22;5167;52.164;10.530;2023-03-01T12:01:19;8.80;5.00
10245;DHT22;5167;52.164;10.530;2023-03-01T12:06:37;8.90;5.00
10245;DHT22;5167;52.164;10.530;2023-03-01T12:12:00;9.00;5.00
10245;DHT22;5167;52.164;10.530;2023-03-01T12:14:42;9.10;5.00
10245;DHT22;5167;52.164;10.530;2023-03-01T12:17:32;8.90;5.00
10245;DHT22;5167;52.164;10.530;2023-03-01T12:23:02;8.70;5.00
10245;DHT22;5167;52.164;10.530;2023-03-01T12:25:48;8.60;5.00
10245;DHT22;5167;52.164;10.530;2023-03-01T12:34:06;8.60;5.00
10245;DHT22;5167;52.164;10.530;2023-03-01T12:47:26;8.30;5.00
10245;DHT22;5167;52.164;10.530;2023-03-01T12:50:03;8.30;5.00
10245;DHT22;5167;52.164;10.530;2023-03-01T12:55:32;8.10;5.00
10245;DHT22;5167;52.164;10.530;2023-03-01T12:58:01;8.20;5.00
10245;DHT22;5167;52.164;10.530;2023-03-01T13:00:56;8.20;5.00
10245;DHT22;5167;52.164;10.530;2023-03-01T13:03:32;8.20;5.00
10245;DHT22;5167;52.164;10.530;2023-03-01T13:09:16;8.30;5.00
10245;DHT22;5167;52.164;10.530;2023-03-01T13:11:43;8.30;5.00
10245;DHT22;5167;52.164;10.530;2023-03-01T13:16:51;8.40;5.00
10245;DHT22;5167;52.164;10.530;2023-03-01T13:21:45;8.40;5.00
10245;DHT22;5167;52.164;10.530;2023-03-01T13:24:37;8.40;5.00
10245;DHT22;5167;52.164;10.530;2023-03-01T13:29:50;8.40;5.00
10245;DHT22;5167;52.164;10.530;2023-03-01T13:32:27;8.40;5.00
10245;DHT22;5167;52.164;10.530;2023-03-01T13:37:43;8.40;5.00
10245;DHT22;5167;52.164;10.530;2023-03-01T13:42:46;8.30;5.00
10245;DHT22;5167;52.164;10.530;2023-03-01T13:45:39;8.30;5.00
10245;DHT22;5167;52.164;10.530;2023-03-01T13:48:16;8.30;5.00
10245;DHT22;5167;52.164;10.530;2023-03-01T13:50:48;8.30;5.00
10245;DHT22;5167;52.164;10.530;2023-03-01T13:53:21;8.30;5.00
10245;DHT22;5167;52.164;10.530;2023-03-01T13:55:55;8.40;5.00
10245;DHT22;5167;52.164;10.530;2023-03-01T14:01:04;8.40;5.00
10245;DHT22;5167;52.164;10.530;2023-03-01T14:03:33;8.50;5.00
10245;DHT22;5167;52.164;10.530;2023-03-01T14:08:33;8.40;5.00
10245;DHT22;5167;52.164;10.530;2023-03-01T14:11:21;8.40;5.00
10245;DHT22;5167;52.164;10.530;2023-03-01T14:14:00;8.50;5.00
10245;DHT22;5167;52.164;10.530;2023-03-01T14:16:35;8.50;5.00
10245;DHT22;5167;52.164;10.530;2023-03-01T14:19:19;8.40;5.00
10245;DHT22;5167;52.164;10.530;2023-03-01T14:21:47;8.40;5.00
10245;DHT22;5167;52.164;10.530;2023-03-01T14:24:21;8.50;5.00
10245;DHT22;5167;52.164;10.530;2023-03-01T14:26:48;8.40;5.00
10245;DHT22;5167;52.164;10.530;2023-03-01T14:29:25;8.40;5.00
10245;DHT22;5167;52.164;10.530;2023-03-01T14:31:50;8.40;5.00
10245;DHT22;5167;52.164;10.530;2023-03-01T14:34:24;8.60;5.00
10245;DHT22;5167;52.164;10.530;2023-03-01T14:36:49;8.70;5.00
10245;DHT22;5167;52.164;10.530;2023-03-01T14:39:23;8.50;5.00
10245;DHT22;5167;52.164;10.530;2023-03-01T14:41:50;8.50;5.00
10245;DHT22;5167;52.164;10.530;2023-03-01T14:44:20;8.50;5.00
10245;DHT22;5167;52.164;10.530;2023-03-01T14:46:55;8.50;5.00
10245;DHT22;5167;52.164;10.530;2023-03-01T14:49:30;8.50;5.00
10245;DHT22;5167;52.164;10.530;2023-03-01T14:52:05;8.60;5.00
10245;DHT22;5167;52.164;10.530;2023-03-01T14:54:41;8.60;5.00
10245;DHT22;5167;52.164;10.530;2023-03-01T14:57:15;8.60;5.00
10245;DHT22;5167;52.164;10.530;2023-03-01T14:59:42;8.60;5.00
10245;DHT22;5167;52.164;10.530;2023-03-01T15:02:15;8.50;5.00
10245;DHT22;5167;52.164;10.530;2023-03-01T15:04:44;8.50;5.00
10245;DHT22;5167;52.164;10.530;2023-03-01T15:07:13;8.40;5.00
10245;DHT22;5167;52.164;10.530;2023-03-01T15:09:39;8.40;5.00
10245;DHT22;5167;52.164;10.530;2023-03-01T15:12:33;8.40;5.00
10245;DHT22;5167;52.164;10.530;2023-03-01T15:14:59;8.60;5.00
10245;DHT22;5167;52.164;10.530;2023-03-01T15:17:36;8.60;5.00
10245;DHT22;5167;52.164;10.530;2023-03-01T15:20:07;8.40;5.00
10245;DHT22;5167;52.164;10.530;2023-03-01T15:22:44;8.50;5.00
10245;DHT22;5167;52.164;10.530;2023-03-01T15:25:22;8.40;5.00
10245;DHT22;5167;52.164;10.530;2023-03-01T15:27:50;8.50;5.00
10245;DHT22;5167;52.164;10.530;2023-03-01T15:30:31;8.50;5.00
10245;DHT22;5167;52.164;10.530;2023-03-01T15:33:34;8.50;5.00
10245;DHT22;5167;52.164;10.530;2023-03-01T15:36:02;8.40;5.00
10245;DHT22;5167;52.164;10.530;2023-03-01T15:38:29;8.40;5.00
10245;DHT22;5167;52.164;10.530;2023-03-01T15:40:57;8.40;5.00
10245;DHT22;5167;52.164;10.530;2023-03-01T15:43:42;8.40;5.00
10245;DHT22;5167;52.164;10.530;2023-03-01T15:46:30;8.40;5.00
10245;DHT22;5167;52.164;10.530;2023-03-01T15:48:59;8.50;5.00
10245;DHT22;5167;52.164;10.530;2023-03-01T15:51:33;8.40;5.00
10245;DHT22;5167;52.164;10.530;2023-03-01T15:54:10;8.40;5.00
10245;DHT22;5167;52.164;10.530;2023-03-01T15:56:39;8.40;5.00
10245;DHT22;5167;52.164;10.530;2023-03-01T15:59:05;8.40;5.00
10245;DHT22;5167;52.164;10.530;2023-03-01T16:01:32;8.50;5.00
10245;DHT22;5167;52.164;10.530;2023-03-01T16:03:59;8.40;5.00
10245;DHT22;5167;52.164;10.530;2023-03-01T16:06:24;8.40;5.00
10245;DHT22;5167;52.164;10.530;2023-03-01T16:08:50;8.40;5.00
10245;DHT22;5167;52.164;10.530;2023-03-01T16:11:18;8.40;5.00
10245;DHT22;5167;52.164;10.530;2023-03-01T16:13:44;8.40;5.00
10245;DHT22;5167;52.164;10.530;2023-03-01T16:16:12;8.40;5.00
10245;DHT22;5167;52.164;10.530;2023-03-01T16:18:40;8.40;5.00
10245;DHT22;5167;52.164;10.530;2023-03-01T16:21:06;8.30;5.00
10245;DHT22;5167;52.164;10.530;2023-03-01T16:23:31;8.20;5.00
10245;DHT22;5167;52.164;10.530;2023-03-01T16:26:00;8.30;5.00
10245;DHT22;5167;52.164;10.530;2023-03-01T16:28:26;8.30;5.00
10245;DHT22;5167;52.164;10.530;2023-03-01T16:30:51;8.20;5.00
10245;DHT22;5167;52.164;10.530;2023-03-01T16:33:17;8.20;5.00
10245;DHT22;5167;52.164;10.530;2023-03-01T16:35:43;8.20;5.00
10245;DHT22;5167;52.164;10.530;2023-03-01T16:38:10;8.10;5.00
10245;DHT22;5167;52.164;10.530;2023-03-01T16:40:35;8.10;5.00
10245;DHT22;5167;52.164;10.530;2023-03-01T16:43:01;8.10;5.00
10245;DHT22;5167;52.164;10.530;2023-03-01T16:45:29;8.30;5.00
10245;DHT22;5167;52.164;10.530;2023-03-01T16:47:58;8.00;5.00
10245;DHT22;5167;52.164;10.530;2023-03-01T16:50:23;8.00;5.00
10245;DHT22;5167;52.164;10.530;2023-03-01T16:52:49;8.00;5.00
10245;DHT22;5167;52.164;10.530;2023-03-01T16:55:14;8.00;5.00
10245;DHT22;5167;52.164;10.530;2023-03-01T16:57:40;7.90;5.00
10245;DHT22;5167;52.164;10.530;2023-03-01T17:00:07;7.90;5.00
10245;DHT22;5167;52.164;10.530;2023-03-01T17:02:36;7.90;5.00
10245;DHT22;5167;52.164;10.530;2023-03-01T17:05:03;7.80;5.00
10245;DHT22;5167;52.164;10.530;2023-03-01T17:07:29;7.80;5.00
10245;DHT22;5167;52.164;10.530;2023-03-01T17:09:59;7.80;5.00
10245;DHT22;5167;52.164;10.530;2023-03-01T17:12:24;7.70;5.00
10245;DHT22;5167;52.164;10.530;2023-03-01T17:14:50;7.70;5.00
10245;DHT22;5167;52.164;10.530;2023-03-01T17:17:15;7.60;5.00
10245;DHT22;5167;52.164;10.530;2023-03-01T17:19:41;7.60;5.00
10245;DHT22;5167;52.164;10.530;2023-03-01T17:22:09;7.60;5.00
10245;DHT22;5167;52.164;10.530;2023-03-01T17:24:36;7.50;5.00
10245;DHT22;5167;52.164;10.530;2023-03-01T17:27:03;7.50;5.00